Time;durP1;ratioP1;P1;durP2;ratioP2;P2;SDS_P1;SDS_P2;PMS_P1;PMS_P2;Temp;Humidity;BMP_temperature;BMP_pressure;BME280_temperature;BME280_humidity;BME280_pressure;Samples;Min_cycle;Max_cycle;Signal;HPM_P1;HPM_P2
2023/06/08 00:01:28;;;;;;;11.45;6.93;;;;;;;16.36;94.82;101682.25;4988438;28;20031;-63
2023/06/08 00:03:54;;;;;;;14.20;6.72;;;;;;;16.36;94.35;101686.59;4988657;28;20521;-64
2023/06/08 00:06:22;;;;;;;10.30;6.13;;;;;;;16.31;94.58;101678.66;4989459;28;20517;-64
2023/06/08 00:08:47;;;;;;;9.02;6.00;;;;;;;16.29;95.43;101677.75;4988600;28;20556;-64
2023/06/08 00:11:13;;;;;;;9.25;6.78;;;;;;;16.26;95.75;101681.16;4988823;28;20062;-63
2023/06/08 00:13:38;;;;;;;10.57;6.93;;;;;;;16.23;95.90;101688.94;4988473;28;20019;-64
2023/06/08 00:16:04;;;;;;;11.68;6.68;;;;;;;16.21;95.93;101688.03;4988956;28;20109;-63
2023/06/08 00:18:30;;;;;;;9.30;6.05;;;;;;;16.21;96.62;101685.41;4988899;28;20587;-63
2023/06/08 00:20:56;;;;;;;10.35;6.40;;;;;;;16.19;96.47;101679.28;4988787;28;20028;-63
2023/06/08 00:23:21;;;;;;;17.60;7.03;;;;;;;16.17;96.83;101675.75;4988201;28;20026;-61
2023/06/08 00:25:47;;;;;;;10.27;7.15;;;;;;;16.11;96.91;101676.50;4988860;28;20537;-62
2023/06/08 00:28:12;;;;;;;11.77;7.13;;;;;;;16.13;97.66;101679.13;4988434;28;20453;-64
2023/06/08 00:30:38;;;;;;;12.65;7.07;;;;;;;16.07;96.91;101675.53;4988412;28;20478;-63
2023/06/08 00:33:04;;;;;;;13.05;7.53;;;;;;;16.07;96.79;101677.25;4988291;28;20026;-64
2023/06/08 00:35:30;;;;;;;11.27;6.95;;;;;;;16.04;96.88;101679.81;4988669;28;20054;-62
2023/06/08 00:37:55;;;;;;;10.23;6.95;;;;;;;16.03;97.20;101668.47;4987989;28;20026;-63
2023/06/08 00:40:20;;;;;;;12.27;6.15;;;;;;;16.00;96.52;101668.41;4988183;28;20017;-63
2023/06/08 00:42:46;;;;;;;11.75;7.22;;;;;;;15.97;98.03;101673.53;4988395;28;20052;-63
2023/06/08 00:45:11;;;;;;;14.43;7.38;;;;;;;15.95;97.59;101670.00;4988413;28;20477;-63
2023/06/08 00:47:36;;;;;;;11.75;6.97;;;;;;;15.93;98.67;101666.47;4988242;28;20077;-63
2023/06/08 00:50:03;;;;;;;10.60;6.78;;;;;;;15.87;98.75;101664.59;4988523;28;20168;-64
2023/06/08 00:52:29;;;;;;;11.85;7.25;;;;;;;15.82;98.72;101674.06;4987850;28;20101;-64
2023/06/08 00:54:56;;;;;;;8.15;6.72;;;;;;;15.75;99.47;101659.97;4988019;28;20474;-64
2023/06/08 00:57:25;;;;;;;12.25;7.30;;;;;;;15.72;100.00;101662.53;4987922;28;20026;-63
2023/06/08 00:59:52;;;;;;;11.82;6.57;;;;;;;15.70;100.00;101658.97;4987891;28;20114;-63
2023/06/08 01:02:18;;;;;;;12.25;7.55;;;;;;;15.66;100.00;101658.03;4988174;28;20522;-63
2023/06/08 01:04:45;;;;;;;12.13;6.80;;;;;;;15.59;100.00;101650.88;4987611;28;20113;-63
2023/06/08 01:07:25;;;;;;;10.15;7.30;;;;;;;15.52;100.00;101649.88;4987681;28;20026;-63
2023/06/08 01:10:02;;;;;;;10.45;7.03;;;;;;;15.50;100.00;101659.38;4987564;28;20109;-63
2023/06/08 01:12:44;;;;;;;10.88;6.68;;;;;;;15.46;100.00;101654.91;4987226;28;20041;-62
2023/06/08 01:15:23;;;;;;;14.50;8.35;;;;;;;15.42;100.00;101656.56;4987941;28;20068;-63
2023/06/08 01:17:52;;;;;;;12.10;6.32;;;;;;;15.39;100.00;101653.88;4987657;28;20026;-63
2023/06/08 01:21:07;;;;;;;11.02;7.05;;;;;;;15.32;100.00;101657.19;4987924;28;20509;-62
2023/06/08 01:24:12;;;;;;;11.20;6.72;;;;;;;15.28;100.00;101656.22;4908205;29;20059;-63
2023/06/08 01:26:49;;;;;;;12.32;7.47;;;;;;;15.23;100.00;101650.00;4908087;29;20051;-63
2023/06/08 01:29:16;;;;;;;10.15;7.40;;;;;;;15.20;100.00;101652.56;4974018;28;20052;-62
2023/06/08 01:31:41;;;;;;;12.80;7.20;;;;;;;15.13;100.00;101646.25;4987618;28;20109;-63
2023/06/08 01:34:10;;;;;;;10.38;6.97;;;;;;;15.11;100.00;101645.38;4987233;28;20129;-63
2023/06/08 01:37:03;;;;;;;14.43;7.28;;;;;;;15.09;100.00;101653.13;4991402;28;20058;-62
2023/06/08 01:39:40;;;;;;;17.17;8.15;;;;;;;15.07;100.00;101651.34;4991504;28;20037;-63
2023/06/08 01:42:07;;;;;;;13.65;6.90;;;;;;;15.03;100.00;101649.47;4991660;28;20037;-63
2023/06/08 01:44:40;;;;;;;13.20;8.00;;;;;;;15.02;100.00;101648.59;4991875;28;20038;-63
2023/06/08 01:47:07;;;;;;;11.45;7.30;;;;;;;14.97;100.00;101639.75;4991302;28;20065;-63
2023/06/08 01:49:33;;;;;;;10.27;7.43;;;;;;;14.95;100.00;101636.25;4991410;28;20109;-63
2023/06/08 01:51:59;;;;;;;14.20;7.80;;;;;;;14.89;100.00;101632.59;4992087;28;20048;-63
2023/06/08 01:54:24;;;;;;;15.40;8.13;;;;;;;14.85;100.00;101632.50;4991492;28;20533;-63
2023/06/08 01:56:50;;;;;;;9.38;7.20;;;;;;;14.81;100.00;101623.69;4990630;28;20018;-64
2023/06/08 01:59:15;;;;;;;12.50;7.63;;;;;;;14.77;100.00;101624.41;4991043;28;20521;-63
2023/06/08 02:01:40;;;;;;;15.60;7.68;;;;;;;14.75;100.00;101633.94;4991021;28;20549;-63
2023/06/08 02:04:06;;;;;;;12.60;7.47;;;;;;;14.70;100.00;101631.19;4989951;28;20023;-61
2023/06/08 02:06:31;;;;;;;13.35;7.55;;;;;;;14.65;100.00;101631.09;4990936;28;20069;-63
2023/06/08 02:08:57;;;;;;;9.60;7.28;;;;;;;14.61;100.00;101626.63;4991112;28;20085;-63
2023/06/08 02:11:23;;;;;;;13.00;8.30;;;;;;;14.59;100.00;101622.22;4991041;28;20465;-63
2023/06/08 02:13:48;;;;;;;11.60;8.00;;;;;;;14.52;100.00;101621.13;4991454;28;20054;-63
2023/06/08 02:16:14;;;;;;;12.15;7.65;;;;;;;14.48;100.00;101627.13;4990868;28;20474;-63
2023/06/08 02:18:41;;;;;;;14.65;8.25;;;;;;;14.44;100.00;101622.66;4990831;28;20026;-62
2023/06/08 02:21:10;;;;;;;13.70;8.48;;;;;;;14.41;100.00;101629.53;4990664;28;20018;-63
2023/06/08 02:23:36;;;;;;;13.55;8.32;;;;;;;14.39;100.00;101631.22;4978879;28;20022;-63
2023/06/08 02:26:01;;;;;;;12.02;7.88;;;;;;;14.40;100.00;101633.00;4990507;28;20034;-63
2023/06/08 02:28:26;;;;;;;10.43;8.23;;;;;;;14.39;100.00;101636.44;4990857;28;20058;-63
2023/06/08 02:30:52;;;;;;;14.13;8.45;;;;;;;14.37;100.00;101638.09;4990441;28;20141;-63
2023/06/08 02:33:17;;;;;;;13.55;8.82;;;;;;;14.34;100.00;101629.31;4978934;28;20058;-63
2023/06/08 02:35:42;;;;;;;11.60;8.35;;;;;;;14.29;100.00;101634.41;4990674;28;20526;-63
2023/06/08 02:38:08;;;;;;;13.77;8.98;;;;;;;14.26;100.00;101634.31;4990576;28;20030;-64
2023/06/08 02:40:33;;;;;;;12.07;8.25;;;;;;;14.23;100.00;101629.03;4990711;28;20058;-63
2023/06/08 02:42:59;;;;;;;13.75;8.38;;;;;;;14.16;100.00;101627.94;4990549;28;20022;-63
2023/06/08 02:45:25;;;;;;;10.95;8.40;;;;;;;14.16;100.00;101627.94;4990495;28;20031;-63
2023/06/08 02:47:50;;;;;;;19.83;9.25;;;;;;;14.12;100.00;101637.38;4990908;28;20478;-63
2023/06/08 02:50:15;;;;;;;13.68;9.02;;;;;;;14.08;100.00;101635.53;4990511;28;20030;-61
2023/06/08 02:52:41;;;;;;;12.02;8.60;;;;;;;14.06;100.00;101634.59;4990076;28;20113;-61
2023/06/08 02:55:06;;;;;;;16.73;8.50;;;;;;;14.04;100.00;101633.69;4990296;28;20026;-63
2023/06/08 02:57:36;;;;;;;14.65;9.30;;;;;;;13.97;100.00;101626.50;4990732;28;20030;-63
2023/06/08 03:00:07;;;;;;;9.98;8.90;;;;;;;13.91;100.00;101627.19;4987252;28;20033;-62
2023/06/08 03:02:32;;;;;;;15.23;8.82;;;;;;;13.86;100.00;101631.38;4986978;28;20038;-62
2023/06/08 03:05:02;;;;;;;15.00;9.90;;;;;;;13.83;100.00;101628.69;4987425;28;20030;-62
2023/06/08 03:07:28;;;;;;;13.80;9.25;;;;;;;13.79;100.00;101625.09;4987929;28;20552;-63
2023/06/08 03:09:53;;;;;;;14.25;8.80;;;;;;;13.78;100.00;101631.16;4987795;28;20018;-63
2023/06/08 03:12:18;;;;;;;15.85;9.43;;;;;;;13.75;100.00;101628.44;4987697;28;20159;-63
2023/06/08 03:14:44;;;;;;;13.68;8.45;;;;;;;13.72;100.00;101625.75;4987463;28;20066;-63
2023/06/08 03:17:10;;;;;;;14.48;8.45;;;;;;;13.69;100.00;101622.22;4988026;28;20347;-63
2023/06/08 03:19:35;;;;;;;15.90;9.48;;;;;;;13.63;100.00;101622.03;4987343;28;20038;-62
2023/06/08 03:22:04;;;;;;;14.27;9.27;;;;;;;13.61;100.00;101623.69;4987794;28;20030;-63
2023/06/08 03:24:32;;;;;;;18.70;9.73;;;;;;;13.57;100.00;101621.81;4987317;28;20313;-63
2023/06/08 03:27:00;;;;;;;15.75;9.90;;;;;;;13.55;100.00;101626.09;4988232;28;20105;-63
2023/06/08 03:29:27;;;;;;;12.35;9.55;;;;;;;13.53;100.00;101625.16;4989205;28;20026;-63
2023/06/08 03:31:52;;;;;;;17.95;9.52;;;;;;;13.54;100.00;101626.94;4989970;28;20140;-63
2023/06/08 03:34:18;;;;;;;16.60;10.18;;;;;;;13.53;100.00;101625.16;4989179;28;20107;-64
2023/06/08 03:36:44;;;;;;;14.60;9.77;;;;;;;13.50;100.00;101625.03;4989505;28;20110;-63
2023/06/08 03:39:11;;;;;;;17.50;9.45;;;;;;;13.46;100.00;101629.25;4989648;28;20454;-62
2023/06/08 03:41:36;;;;;;;14.57;10.00;;;;;;;13.45;100.00;101625.75;4989030;28;20081;-63
2023/06/08 03:44:01;;;;;;;14.23;9.23;;;;;;;13.43;100.00;101630.03;4989424;28;20256;-63
2023/06/08 03:46:27;;;;;;;16.70;10.82;;;;;;;13.40;100.00;101629.06;4989411;28;20464;-63
2023/06/08 03:48:52;;;;;;;15.18;9.75;;;;;;;13.40;100.00;101624.72;4989598;28;20026;-63
2023/06/08 03:51:20;;;;;;;15.13;9.55;;;;;;;13.39;100.00;101628.16;4989292;28;20026;-62
2023/06/08 03:53:46;;;;;;;14.02;9.68;;;;;;;13.39;100.00;101627.28;4988629;28;20022;-63
2023/06/08 03:56:11;;;;;;;17.92;11.07;;;;;;;13.38;100.00;101622.91;4988957;28;20018;-63
2023/06/08 03:58:37;;;;;;;17.13;10.40;;;;;;;13.37;100.00;101618.53;4988569;28;20466;-63
2023/06/08 04:01:02;;;;;;;15.93;11.00;;;;;;;13.33;100.00;101628.84;4989097;28;20018;-63
2023/06/08 04:03:27;;;;;;;16.23;11.15;;;;;;;13.31;100.00;101630.50;4989211;28;20081;-63
2023/06/08 04:05:53;;;;;;;17.50;11.05;;;;;;;13.30;100.00;101628.75;4988883;28;20153;-63
2023/06/08 04:08:18;;;;;;;14.82;10.57;;;;;;;13.28;100.00;101629.50;4989200;28;20390;-63
2023/06/08 04:10:44;;;;;;;14.75;10.15;;;;;;;13.27;100.00;101632.97;4976655;28;20041;-63
2023/06/08 04:13:10;;;;;;;15.32;10.80;;;;;;;13.25;100.00;101632.03;4988686;28;20122;-63
2023/06/08 04:15:35;;;;;;;12.90;9.85;;;;;;;13.25;100.00;101625.13;4988377;28;20028;-63
2023/06/08 04:18:05;;;;;;;16.80;10.35;;;;;;;13.23;100.00;101624.16;4988954;28;20446;-63
2023/06/08 04:20:30;;;;;;;14.88;10.75;;;;;;;13.24;100.00;101625.06;4976478;28;20042;-63
2023/06/08 04:22:56;;;;;;;15.00;10.32;;;;;;;13.23;100.00;101626.78;4988683;28;20022;-63
2023/06/08 04:25:24;;;;;;;15.80;11.30;;;;;;;13.24;100.00;101625.94;4988109;28;20470;-63
2023/06/08 04:27:51;;;;;;;19.23;11.25;;;;;;;13.20;100.00;101627.53;4988673;28;20041;-63
2023/06/08 04:30:17;;;;;;;17.38;11.30;;;;;;;13.20;100.00;101624.94;4988778;28;20034;-63
2023/06/08 04:32:42;;;;;;;17.10;11.07;;;;;;;13.20;100.00;101622.34;4988788;28;20029;-63
2023/06/08 04:35:08;;;;;;;15.02;11.32;;;;;;;13.21;100.00;101618.03;4988330;28;20047;-63
2023/06/08 04:37:34;;;;;;;17.23;11.68;;;;;;;13.18;100.00;101612.72;4988348;28;20486;-62
2023/06/08 04:40:01;;;;;;;15.52;11.43;;;;;;;13.20;100.00;101624.06;4988460;28;20029;-63
2023/06/08 04:42:29;;;;;;;20.40;12.02;;;;;;;13.20;100.00;101622.34;4989101;28;20080;-64
2023/06/08 04:44:59;;;;;;;17.15;11.98;;;;;;;13.23;100.00;101615.47;4988400;28;20552;-63
2023/06/08 04:47:24;;;;;;;17.20;11.68;;;;;;;13.26;100.00;101610.38;4988442;28;20022;-62
2023/06/08 04:49:51;;;;;;;17.73;12.48;;;;;;;13.30;100.00;101622.66;4987470;28;20032;-63
2023/06/08 04:52:19;;;;;;;16.15;12.77;;;;;;;13.32;100.00;101621.00;4988147;28;20062;-62
2023/06/08 04:54:46;;;;;;;16.83;11.98;;;;;;;13.34;100.00;101619.31;4988688;28;20112;-63
2023/06/08 04:57:15;;;;;;;16.10;11.90;;;;;;;13.38;100.00;101625.50;4987882;28;20436;-63
2023/06/08 04:59:40;;;;;;;16.23;11.80;;;;;;;13.40;100.00;101619.50;4988954;28;20042;-62
2023/06/08 05:02:06;;;;;;;16.67;11.75;;;;;;;13.40;100.00;101619.50;4988321;28;20026;-63
2023/06/08 05:04:31;;;;;;;17.15;11.60;;;;;;;13.43;100.00;101614.44;4986377;28;20464;-63
2023/06/08 05:06:56;;;;;;;16.40;12.05;;;;;;;13.46;100.00;101618.84;4987996;28;20036;-64
2023/06/08 05:09:22;;;;;;;16.35;12.00;;;;;;;13.51;100.00;101616.41;4986644;28;20026;-63
2023/06/08 05:11:47;;;;;;;16.95;11.57;;;;;;;13.52;100.00;101612.94;4987776;28;20393;-63
2023/06/08 05:14:12;;;;;;;13.57;11.68;;;;;;;13.54;100.00;101611.31;4986723;28;20045;-62
2023/06/08 05:16:38;;;;;;;19.63;12.95;;;;;;;13.56;100.00;101618.31;4988063;28;20030;-63
2023/06/08 05:19:05;;;;;;;17.38;11.73;;;;;;;13.59;100.00;101620.16;4987931;28;20509;-64
2023/06/08 05:21:30;;;;;;;16.02;12.23;;;;;;;13.63;100.00;101616.81;4987484;28;20033;-64
2023/06/08 05:23:56;;;;;;;13.75;10.85;;;;;;;13.68;100.00;101620.44;4987699;28;20030;-64
2023/06/08 05:26:21;;;;;;;15.35;10.98;;;;;;;13.76;100.00;101622.41;4987471;28;20212;-63
2023/06/08 05:28:46;;;;;;;18.65;11.32;;;;;;;13.79;100.00;101614.69;4987747;28;20380;-63
2023/06/08 05:31:12;;;;;;;14.73;10.73;;;;;;;13.86;100.00;101619.25;4987542;28;20073;-64
2023/06/08 05:33:37;;;;;;;17.08;10.98;;;;;;;13.93;100.00;101616.00;4987974;28;20034;-63
2023/06/08 05:36:03;;;;;;;15.65;11.43;;;;;;;13.98;100.00;101617.84;4986984;28;20051;-63
2023/06/08 05:38:29;;;;;;;15.07;11.27;;;;;;;14.03;100.00;101611.06;4987721;28;20031;-63
2023/06/08 05:40:54;;;;;;;15.82;10.93;;;;;;;14.10;100.00;101605.22;4987826;28;20015;-63
2023/06/08 05:43:19;;;;;;;17.08;11.05;;;;;;;14.13;100.00;101607.91;4986625;28;20022;-63
2023/06/08 05:45:45;;;;;;;14.98;10.82;;;;;;;14.20;100.00;101600.25;4987644;28;20057;-63
2023/06/08 05:48:12;;;;;;;15.88;10.93;;;;;;;14.26;100.00;101592.63;4986059;28;20521;-63
2023/06/08 05:50:37;;;;;;;14.20;10.65;;;;;;;14.33;100.00;101594.56;4984408;28;20031;-63
2023/06/08 05:53:03;;;;;;;17.52;11.18;;;;;;;14.43;100.00;101594.81;4986297;28;20041;-64
2023/06/08 05:55:28;;;;;;;14.05;11.23;;;;;;;14.50;100.00;101597.63;4985562;28;20430;-63
2023/06/08 05:57:53;;;;;;;16.85;11.93;;;;;;;14.55;100.00;101603.00;4986102;28;20026;-64
2023/06/08 06:00:19;;;;;;;14.30;11.13;;;;;;;14.61;100.00;101607.47;4985562;28;20023;-63
2023/06/08 06:02:44;;;;;;;17.40;12.30;;;;;;;14.64;100.00;101595.38;4986662;28;20104;-64
2023/06/08 06:05:10;;;;;;;16.17;11.13;;;;;;;14.74;100.00;101598.25;4987414;28;20026;-64
2023/06/08 06:07:36;;;;;;;15.30;12.00;;;;;;;14.81;100.00;101592.41;4986850;28;20046;-64
2023/06/08 06:10:03;;;;;;;14.65;11.45;;;;;;;14.92;100.00;101599.63;4987043;28;20062;-64
2023/06/08 06:12:28;;;;;;;17.35;11.20;;;;;;;15.03;100.00;101603.41;4986823;28;20022;-66
2023/06/08 06:14:55;;;;;;;20.05;11.73;;;;;;;15.13;100.00;101600.16;4987503;28;20030;-64
2023/06/08 06:17:20;;;;;;;15.60;11.13;;;;;;;15.20;100.00;101595.97;4987745;28;20033;-64
2023/06/08 06:19:45;;;;;;;16.38;11.40;;;;;;;15.31;100.00;101604.06;4986749;28;20022;-64
2023/06/08 06:22:11;;;;;;;16.17;11.98;;;;;;;15.38;100.00;101601.63;4990480;28;20477;-64
2023/06/08 06:24:37;;;;;;;15.32;12.40;;;;;;;15.45;100.00;101595.72;4990197;28;20028;-64
2023/06/08 06:27:04;;;;;;;14.15;11.50;;;;;;;15.58;100.00;101596.84;4990238;28;20464;-64
2023/06/08 06:29:29;;;;;;;16.42;12.43;;;;;;;15.70;100.00;101597.13;4990287;28;20030;-64
2023/06/08 06:31:54;;;;;;;18.42;11.80;;;;;;;15.80;100.00;101608.69;4989444;28;20046;-64
2023/06/08 06:34:20;;;;;;;16.27;11.25;;;;;;;15.95;100.00;101602.06;4990946;28;20022;-64
2023/06/08 06:36:46;;;;;;;15.93;12.13;;;;;;;16.09;100.00;101602.38;4990084;28;20034;-64
2023/06/08 06:39:12;;;;;;;18.45;12.00;;;;;;;16.20;100.00;101598.25;4990714;28;20023;-64
2023/06/08 06:41:39;;;;;;;16.80;12.50;;;;;;;16.36;100.00;101602.91;4990682;28;20030;-64
2023/06/08 06:44:04;;;;;;;13.98;11.13;;;;;;;16.51;99.85;101600.63;4990330;28;20022;-64
2023/06/08 06:46:30;;;;;;;18.15;12.05;;;;;;;16.63;99.97;101605.19;4990565;28;20033;-64
2023/06/08 06:48:55;;;;;;;15.00;11.65;;;;;;;16.76;99.23;101600.19;4990492;28;20388;-64
2023/06/08 06:51:21;;;;;;;14.68;12.30;;;;;;;16.85;96.42;101599.47;4991122;28;20072;-64
2023/06/08 06:53:46;;;;;;;17.77;12.50;;;;;;;16.89;96.71;101609.16;4990176;28;20022;-64
2023/06/08 06:56:13;;;;;;;13.55;11.25;;;;;;;16.98;95.19;101613.66;4990690;28;20026;-64
2023/06/08 06:58:42;;;;;;;17.13;11.45;;;;;;;17.05;95.13;101610.31;4990351;28;20612;-64
2023/06/08 07:01:07;;;;;;;17.15;12.07;;;;;;;17.22;95.75;101620.19;4991044;28;20026;-65
2023/06/08 07:03:33;;;;;;;17.98;11.65;;;;;;;17.34;94.23;101609.06;4988294;28;20041;-65
2023/06/08 07:05:58;;;;;;;13.35;11.10;;;;;;;17.46;93.61;101622.34;4987770;28;20549;-65
2023/06/08 07:08:25;;;;;;;15.00;11.88;;;;;;;17.57;94.99;101609.41;4988925;28;20022;-64
2023/06/08 07:10:51;;;;;;;21.92;12.82;;;;;;;17.71;93.75;101612.22;4990070;28;20231;-65
2023/06/08 07:13:16;;;;;;;16.55;11.80;;;;;;;17.79;91.48;101619.31;4990158;28;20023;-65
2023/06/08 07:15:42;;;;;;;14.32;10.77;;;;;;;17.91;91.88;101619.50;4990483;28;20026;-65
2023/06/08 07:18:07;;;;;;;16.67;13.35;;;;;;;18.04;90.90;101624.91;4989537;28;20520;-64
2023/06/08 07:20:32;;;;;;;12.45;10.73;;;;;;;18.16;90.07;101624.22;4989416;28;20034;-65
2023/06/08 07:22:58;;;;;;;17.98;11.27;;;;;;;18.27;90.53;101619.09;4990109;28;20022;-65
2023/06/08 07:25:23;;;;;;;16.85;12.95;;;;;;;18.30;87.66;101611.25;4989685;28;20147;-65
2023/06/08 07:27:49;;;;;;;16.05;12.00;;;;;;;18.46;88.44;101614.94;4989675;28;20034;-65
2023/06/08 07:30:14;;;;;;;16.80;12.40;;;;;;;18.59;88.55;101619.47;4989312;28;20079;-65
2023/06/08 07:32:40;;;;;;;16.60;14.40;;;;;;;18.67;87.57;101622.16;4988405;28;20382;-65
2023/06/08 07:35:05;;;;;;;14.82;12.73;;;;;;;18.80;87.69;101611.78;4989229;28;20054;-64
2023/06/08 07:37:31;;;;;;;15.18;12.65;;;;;;;18.93;86.36;101618.94;4989732;28;20109;-65
2023/06/08 07:39:56;;;;;;;16.20;12.55;;;;;;;19.06;86.40;101608.53;4988925;28;20497;-65
2023/06/08 07:42:22;;;;;;;16.77;11.25;;;;;;;19.19;84.98;101613.06;4989045;28;20085;-65
2023/06/08 07:44:48;;;;;;;17.77;14.30;;;;;;;19.28;83.48;101606.13;4989132;28;20033;-64
2023/06/08 07:47:14;;;;;;;16.75;13.02;;;;;;;19.36;82.57;101609.69;4989272;28;20037;-65
2023/06/08 07:49:39;;;;;;;16.85;12.57;;;;;;;19.47;83.75;101604.50;4989413;28;20026;-65
2023/06/08 07:52:05;;;;;;;14.68;10.88;;;;;;;19.60;82.87;101602.84;4988669;28;20391;-65
2023/06/08 07:54:31;;;;;;;15.48;12.25;;;;;;;19.77;81.94;101607.34;4989425;28;20029;-65
2023/06/08 07:56:56;;;;;;;18.52;12.35;;;;;;;19.92;82.58;101603.91;4988237;28;20030;-65
2023/06/08 07:59:21;;;;;;;19.35;12.73;;;;;;;20.04;81.63;101610.94;4989403;28;20015;-64
2023/06/08 08:01:47;;;;;;;15.18;12.18;;;;;;;20.15;80.80;101603.16;4989569;28;20498;-65
2023/06/08 08:04:12;;;;;;;16.17;12.73;;;;;;;20.29;82.08;101605.84;4988830;28;20026;-65
2023/06/08 08:06:37;;;;;;;14.50;12.60;;;;;;;20.46;79.42;101610.28;4988624;28;20173;-65
2023/06/08 08:09:03;;;;;;;15.30;11.45;;;;;;;20.56;78.65;101604.16;4988769;28;20037;-65
2023/06/08 08:11:28;;;;;;;15.38;11.57;;;;;;;20.66;78.00;101604.16;4988488;28;20372;-65
2023/06/08 08:13:55;;;;;;;15.75;12.38;;;;;;;20.76;78.17;101608.56;4988150;28;20057;-65
2023/06/08 08:16:20;;;;;;;17.27;13.63;;;;;;;20.93;76.84;101607.72;4988171;28;20060;-65
2023/06/08 08:18:45;;;;;;;14.27;11.85;;;;;;;21.11;77.49;101604.25;4988657;28;20057;-65
2023/06/08 08:21:11;;;;;;;11.57;10.48;;;;;;;21.30;76.15;101607.75;4988616;28;20461;-65
2023/06/08 08:23:38;;;;;;;15.35;13.25;;;;;;;21.41;74.42;101606.84;4988782;28;20221;-65
2023/06/08 08:26:03;;;;;;;15.15;11.95;;;;;;;21.52;74.22;101607.72;4988532;28;20025;-65
2023/06/08 08:28:28;;;;;;;14.15;12.48;;;;;;;21.65;75.13;101602.41;4987958;28;20108;-65
2023/06/08 08:30:54;;;;;;;14.18;12.13;;;;;;;21.69;71.98;101597.16;4988140;28;20038;-65
2023/06/08 08:33:19;;;;;;;19.70;12.63;;;;;;;21.84;72.98;101600.63;4989204;28;20034;-65
2023/06/08 08:35:45;;;;;;;16.35;14.45;;;;;;;21.91;71.59;101596.25;4988282;28;20108;-65
2023/06/08 08:38:10;;;;;;;17.80;12.55;;;;;;;22.02;71.56;101597.06;4982822;28;20109;-65
2023/06/08 08:40:35;;;;;;;16.75;13.70;;;;;;;21.92;70.09;101604.16;4984125;28;20065;-65
2023/06/08 08:43:15;;;;;;;17.00;13.52;;;;;;;21.76;70.76;101595.38;4986681;28;20398;-65
2023/06/08 08:45:44;;;;;;;14.90;12.73;;;;;;;22.00;72.11;101593.53;4987344;28;20030;-65
2023/06/08 08:48:13;;;;;;;13.10;11.27;;;;;;;22.19;72.34;101593.47;4984340;28;20026;-66
2023/06/08 08:50:39;;;;;;;15.43;12.35;;;;;;;22.30;73.01;101591.66;4983719;28;20034;-65
2023/06/08 08:53:06;;;;;;;13.98;11.52;;;;;;;22.49;71.46;101594.19;4982773;28;20381;-65
2023/06/08 08:55:33;;;;;;;12.27;11.00;;;;;;;22.49;68.81;101591.53;4984584;28;20108;-65
2023/06/08 08:58:03;;;;;;;13.77;11.40;;;;;;;22.62;69.08;101584.47;4984083;28;20026;-65
2023/06/08 09:00:33;;;;;;;14.63;11.00;;;;;;;22.71;70.97;101583.50;4982135;28;20030;-64
2023/06/08 09:03:02;;;;;;;12.10;9.85;;;;;;;22.87;70.52;101580.75;4984076;28;20034;-65
2023/06/08 09:05:27;;;;;;;11.45;9.15;;;;;;;23.00;70.15;101577.13;4984535;28;20042;-65
2023/06/08 09:07:55;;;;;;;13.70;9.77;;;;;;;23.20;69.78;101584.00;4986541;28;20030;-65
2023/06/08 09:10:25;;;;;;;11.55;10.00;;;;;;;23.28;66.91;101583.91;4985942;28;20042;-64
2023/06/08 09:12:53;;;;;;;11.32;9.20;;;;;;;23.31;69.08;101586.53;4986271;28;20146;-64
2023/06/08 09:15:34;;;;;;;11.48;10.18;;;;;;;23.26;64.33;101577.78;4985051;28;20069;-65
2023/06/08 09:18:02;;;;;;;;;;;;;;;23.31;65.74;101585.66;4985281;28;20558;-66
2023/06/08 09:20:29;;;;;;;10.43;9.40;;;;;;;23.44;65.98;101579.38;4984933;28;20040;-65
2023/06/08 09:22:55;;;;;;;12.40;10.02;;;;;;;23.38;64.05;101574.13;4985598;28;20026;-66
2023/06/08 09:25:38;;;;;;;11.00;9.50;;;;;;;23.65;66.60;101574.75;4986105;28;20737;-66
2023/06/08 09:28:18;;;;;;;10.95;9.07;;;;;;;23.84;67.80;101575.41;4978211;28;20068;-66
2023/06/08 09:30:45;;;;;;;11.55;9.70;;;;;;;24.01;66.35;101571.69;4987096;28;20441;-66
2023/06/08 09:33:25;;;;;;;10.63;9.52;;;;;;;24.16;65.07;101570.59;4986005;28;20030;-66
2023/06/08 09:36:03;;;;;;;;;;;;;;;24.32;66.79;101573.06;4987149;28;20479;-65
2023/06/08 09:38:31;;;;;;;9.05;8.15;;;;;;;24.39;64.44;101572.09;4986502;28;20001;-66
2023/06/08 09:41:16;;;;;;;13.07;9.55;;;;;;;24.28;63.76;101577.53;4986908;28;20019;-65
2023/06/08 09:43:44;;;;;;;10.15;8.82;;;;;;;24.37;62.21;101568.59;4986528;28;20034;-65
2023/06/08 09:46:16;;;;;;;10.60;9.50;;;;;;;24.30;62.23;101566.91;4986197;28;20027;-64
2023/06/08 09:48:53;;;;;;;8.95;8.05;;;;;;;24.37;64.02;101558.00;4983998;28;20282;-66
2023/06/08 09:51:19;;;;;;;8.05;6.57;;;;;;;24.63;65.38;101575.25;4985907;28;20039;-65
2023/06/08 09:53:45;;;;;;;11.63;8.55;;;;;;;24.77;61.34;101563.56;4986359;28;20026;-66
2023/06/08 09:56:12;;;;;;;9.88;7.28;;;;;;;24.79;59.15;101564.41;4986950;28;20414;-65
2023/06/08 09:58:39;;;;;;;10.68;8.20;;;;;;;24.72;57.56;101568.06;4987642;28;20518;-66
2023/06/08 10:01:09;;;;;;;8.88;6.85;;;;;;;24.65;58.97;101569.91;4988668;28;20130;-66
2023/06/08 10:03:40;;;;;;;7.47;5.75;;;;;;;24.75;62.34;101558.28;4989884;28;20703;-66
2023/06/08 10:06:09;;;;;;;;;;;;;;;24.91;59.70;101564.22;4990968;28;20084;-65
2023/06/08 10:08:37;;;;;;;8.40;6.80;;;;;;;25.04;62.38;101554.28;4990161;28;19917;-67
2023/06/08 10:11:03;;;;;;;7.28;6.55;;;;;;;25.15;61.54;101562.03;4989756;28;20041;-65
2023/06/08 10:13:29;;;;;;;9.85;6.93;;;;;;;25.20;59.98;101559.31;4989886;28;20030;-65
2023/06/08 10:15:55;;;;;;;9.55;7.28;;;;;;;25.27;60.01;101550.34;4990148;28;20851;-66
2023/06/08 10:18:21;;;;;;;10.52;6.90;;;;;;;25.40;61.50;101545.66;4990937;28;20022;-66
2023/06/08 10:20:46;;;;;;;8.55;6.55;;;;;;;25.43;58.91;101544.75;4987899;28;20022;-66
2023/06/08 10:23:12;;;;;;;10.13;7.22;;;;;;;25.59;58.55;101539.13;4992213;28;20116;-67
2023/06/08 10:25:38;;;;;;;8.90;6.72;;;;;;;25.48;54.42;101537.56;4992095;28;20040;-66
2023/06/08 10:28:08;;;;;;;7.50;5.55;;;;;;;25.45;54.53;101539.41;4992237;28;20026;-66
2023/06/08 10:30:41;;;;;;;8.82;6.28;;;;;;;25.28;55.07;101551.22;4992097;28;20038;-66
2023/06/08 10:33:22;;;;;;;7.82;6.07;;;;;;;25.08;56.39;101536.53;4985184;28;20105;-66
2023/06/08 10:36:06;;;;;;;8.75;6.53;;;;;;;25.06;58.14;101541.00;4991661;28;20051;-67
2023/06/08 10:38:37;;;;;;;7.25;6.03;;;;;;;25.14;60.23;101533.78;4992294;28;20026;-66
2023/06/08 10:41:03;;;;;;;8.57;6.65;;;;;;;25.08;56.33;101544.50;4992632;28;20514;-67
2023/06/08 10:43:29;;;;;;;11.80;7.45;;;;;;;25.08;54.49;101536.53;4982109;28;20084;-66
2023/06/08 10:45:55;;;;;;;9.82;6.38;;;;;;;25.12;58.52;101535.59;4990701;28;20026;-66
2023/06/08 10:48:21;;;;;;;9.20;6.80;;;;;;;25.08;55.15;101541.00;4990801;28;20447;-66
2023/06/08 10:50:49;;;;;;;6.22;5.05;;;;;;;25.20;56.09;101537.22;4990080;28;20037;-66
2023/06/08 10:53:19;;;;;;;7.78;6.80;;;;;;;25.24;55.38;101534.47;4990493;28;20677;-66
2023/06/08 10:55:48;;;;;;;7.13;6.40;;;;;;;25.16;53.87;101537.28;4981760;28;20849;-66
2023/06/08 10:58:21;;;;;;;9.02;5.88;;;;;;;25.27;54.92;101529.16;4990981;28;20018;-66
2023/06/08 11:00:52;;;;;;;7.25;5.72;;;;;;;25.17;55.49;101517.81;4992193;28;20034;-66
2023/06/08 11:03:20;;;;;;;8.38;5.82;;;;;;;24.96;53.02;101523.50;4992453;28;20049;-66
2023/06/08 11:05:50;;;;;;;6.80;5.15;;;;;;;25.08;56.00;101519.78;4991591;28;20425;-66
2023/06/08 11:08:17;;;;;;;9.43;6.47;;;;;;;25.12;56.58;101522.34;4992241;28;20030;-66
2023/06/08 11:10:43;;;;;;;9.50;6.45;;;;;;;25.16;54.97;101512.56;4992027;28;20125;-66
2023/06/08 11:13:09;;;;;;;8.23;7.22;;;;;;;25.10;54.33;101507.34;4992067;28;20109;-66